createdAt,value
2022-10-26T00:02:16.423Z,99943.25
2022-10-26T00:07:19.090Z,99928.78
2022-10-26T00:12:21.888Z,99910.25
2022-10-26T00:17:24.560Z,99921.63
2022-10-26T00:22:27.887Z,99903.56
2022-10-26T00:27:30.526Z,99905.78
2022-10-26T00:32:33.835Z,99919.97
2022-10-26T00:37:36.433Z,99911.84
2022-10-26T00:42:39.100Z,99918.66
2022-10-26T00:47:46.105Z,99913.78
2022-10-26T00:52:51.754Z,99914.81
2022-10-26T00:57:56.009Z,99921.03
2022-10-26T01:03:03.001Z,99903.22
2022-10-26T01:08:06.947Z,99878.81
2022-10-26T01:13:10.684Z,99906.88
2022-10-26T01:18:38.435Z,99873.34
2022-10-26T01:23:50.085Z,99893.22
2022-10-26T01:29:07.708Z,99899.91
2022-10-26T01:34:20.444Z,99896.75
2022-10-26T01:39:30.097Z,99892.47
2022-10-26T01:44:43.048Z,99894.06
2022-10-26T01:49:51.298Z,99898.16
2022-10-26T01:55:01.890Z,99899.78
2022-10-26T02:00:12.934Z,99897.09
2022-10-26T02:05:33.277Z,99909.47
2022-10-26T02:11:03.268Z,99902.88
2022-10-26T02:16:29.672Z,99908.50
2022-10-26T02:21:38.656Z,99915.16
2022-10-26T02:26:45.066Z,99917.75
2022-10-26T02:31:50.335Z,99931.19
2022-10-26T02:36:55.347Z,99913.16
2022-10-26T02:42:01.816Z,99910.34
2022-10-26T02:47:04.614Z,99909.78
2022-10-26T02:52:26.451Z,99911.88
2022-10-26T02:57:39.963Z,99883.56
2022-10-26T03:02:47.614Z,99906.94
2022-10-26T03:07:51.456Z,99905.38
2022-10-26T03:12:54.382Z,99903.59
2022-10-26T03:17:57.002Z,99886.25
2022-10-26T03:23:00.257Z,99878.56
2022-10-26T03:28:04.464Z,99903.78
2022-10-26T03:33:07.263Z,99892.75
2022-10-26T03:38:15.147Z,99893.97
2022-10-26T03:43:18.725Z,99889.78
2022-10-26T03:48:22.037Z,99859.69
2022-10-26T03:53:24.774Z,99881.75
2022-10-26T03:58:27.471Z,99878.25
2022-10-26T04:03:30.063Z,99893.69
2022-10-26T04:08:32.605Z,99895.50
2022-10-26T04:13:35.329Z,99894.88
2022-10-26T04:18:37.895Z,99896.16
2022-10-26T04:23:40.577Z,99911.53
2022-10-26T04:28:43.086Z,99905.66
2022-10-26T04:33:45.579Z,99914.63
2022-10-26T04:38:49.212Z,99924.19
2022-10-26T04:43:51.788Z,99894.41
2022-10-26T04:48:54.405Z,99915.94
2022-10-26T04:53:58.252Z,99921.94
2022-10-26T04:59:00.909Z,99924.69
2022-10-26T05:04:03.567Z,99931.47
2022-10-26T05:09:06.305Z,99936.03
2022-10-26T05:14:09.879Z,99929.09
2022-10-26T05:19:12.451Z,99918.03
2022-10-26T05:24:15.095Z,99883.47
2022-10-26T05:29:17.664Z,99904.38
2022-10-26T05:34:20.282Z,99905.47
2022-10-26T05:39:22.805Z,99873.59
2022-10-26T05:44:25.403Z,99907.38
2022-10-26T05:49:28.019Z,99911.50
2022-10-26T05:54:30.808Z,99901.66
2022-10-26T05:59:33.896Z,99906.31
2022-10-26T06:04:44.543Z,99912.47
2022-10-26T06:09:47.893Z,99894.25
2022-10-26T06:14:50.824Z,99914.16
2022-10-26T06:25:18.195Z,99912.25
2022-10-26T06:30:23.425Z,99897.75
2022-10-26T06:35:34.839Z,99911.19
2022-10-26T06:40:40.808Z,99912.78
2022-10-26T06:45:48.824Z,99922.53
2022-10-26T06:50:54.606Z,99914.19
2022-10-26T06:56:00.019Z,99899.63
2022-10-26T07:01:03.651Z,99910.41
2022-10-26T07:06:06.810Z,99907.25
2022-10-26T07:11:09.484Z,99910.88
2022-10-26T07:16:12.108Z,99876.53
2022-10-26T07:21:14.755Z,99906.59
2022-10-26T07:26:17.639Z,99900.81
2022-10-26T07:31:20.352Z,99901.50
2022-10-26T07:36:23.630Z,99898.78
2022-10-26T07:41:26.202Z,99899.00
2022-10-26T07:46:29.060Z,99903.31
2022-10-26T07:51:31.656Z,99884.44
2022-10-26T07:56:35.254Z,99898.16
2022-10-26T08:01:38.113Z,99902.47
2022-10-26T08:06:40.745Z,99907.81
2022-10-26T08:11:43.279Z,99917.13
2022-10-26T08:16:46.086Z,99905.00
2022-10-26T08:21:48.850Z,99888.56
2022-10-26T08:26:51.456Z,99897.19
2022-10-26T08:31:54.114Z,99914.47
2022-10-26T08:36:56.718Z,99903.25
2022-10-26T08:42:10.809Z,99907.75
2022-10-26T08:47:23.033Z,99899.25
2022-10-26T08:52:33.049Z,99906.00
2022-10-26T08:57:44.220Z,99903.59
2022-10-26T09:02:54.238Z,99914.00
2022-10-26T09:08:06.505Z,99914.84
2022-10-26T09:13:26.862Z,99910.50
2022-10-26T09:24:02.354Z,99913.78
2022-10-26T09:29:11.863Z,99908.59
2022-10-26T09:34:26.690Z,99908.56
2022-10-26T09:39:39.265Z,99914.53
2022-10-26T09:45:00.484Z,99913.81
2022-10-26T09:50:28.845Z,99901.69
2022-10-26T09:55:32.794Z,99909.53
2022-10-26T10:00:38.053Z,99916.25
2022-10-26T10:05:56.636Z,99908.59
2022-10-26T10:11:09.327Z,99897.28
2022-10-26T10:16:25.586Z,99880.00
2022-10-26T10:21:44.508Z,99912.00
2022-10-26T10:26:59.313Z,99912.81
2022-10-26T10:32:03.555Z,99904.22
2022-10-26T10:37:06.264Z,99902.56
2022-10-26T10:42:21.005Z,99911.25
2022-10-26T10:47:31.047Z,99905.19
2022-10-26T10:52:36.675Z,99899.22
2022-10-26T10:57:45.615Z,99904.38
2022-10-26T11:03:00.449Z,99908.69
2022-10-26T11:08:13.218Z,99903.53
2022-10-26T11:13:40.020Z,99901.81
2022-10-26T11:19:18.864Z,99890.66
2022-10-26T11:24:39.027Z,99869.91
2022-10-26T11:29:56.780Z,99864.72
2022-10-26T11:35:06.744Z,99894.00
2022-10-26T11:40:23.707Z,99884.59
2022-10-26T11:45:35.972Z,99895.69
2022-10-26T11:50:45.359Z,99887.13
2022-10-26T11:55:56.561Z,99872.47
2022-10-26T12:01:08.032Z,99876.69
2022-10-26T12:06:11.477Z,99872.47
2022-10-26T12:11:30.728Z,99880.19
2022-10-26T12:17:12.768Z,99873.38
2022-10-26T12:22:19.151Z,99845.72
2022-10-26T12:27:55.068Z,99873.19
2022-10-26T12:33:00.508Z,99879.13
2022-10-26T12:38:21.919Z,99873.94
2022-10-26T12:43:50.428Z,99860.84
2022-10-26T12:48:56.234Z,99849.47
2022-10-26T12:54:01.294Z,99875.31
2022-10-26T12:59:31.129Z,99868.19
2022-10-26T13:04:50.252Z,99872.47
2022-10-26T13:10:01.984Z,99876.66
2022-10-26T13:15:29.302Z,99868.78
2022-10-26T13:20:32.706Z,99875.44
2022-10-26T13:25:35.312Z,99879.66
2022-10-26T13:30:47.112Z,99872.63
2022-10-26T13:35:53.675Z,99880.16
2022-10-26T13:41:07.212Z,99878.41
2022-10-26T13:46:24.203Z,99884.72
2022-10-26T13:51:44.304Z,99878.66
2022-10-26T13:57:11.321Z,99882.88
2022-10-26T14:02:22.265Z,99879.31
2022-10-26T14:07:33.960Z,99869.56
2022-10-26T14:12:38.498Z,99896.19
2022-10-26T14:17:41.973Z,99887.41
2022-10-26T14:22:44.818Z,99880.31
2022-10-26T14:27:47.857Z,99876.53
2022-10-26T14:32:53.305Z,99892.91
2022-10-26T14:37:58.072Z,99898.06
2022-10-26T14:43:02.656Z,99908.16
2022-10-26T14:48:07.634Z,99903.84
2022-10-26T14:53:16.975Z,99898.59
2022-10-26T15:03:30.760Z,99896.63
2022-10-26T15:09:00.965Z,99906.94
2022-10-26T15:14:03.588Z,99898.22
2022-10-26T15:19:12.008Z,99904.50
2022-10-26T15:24:37.674Z,99904.47
2022-10-26T15:29:43.231Z,99892.25
2022-10-26T15:35:05.392Z,99903.44
2022-10-26T15:40:08.727Z,99896.50
2022-10-26T15:45:27.613Z,99905.66
2022-10-26T15:50:30.317Z,99896.28
2022-10-26T15:55:33.148Z,99904.84
2022-10-26T16:00:35.797Z,99895.25
2022-10-26T16:05:38.430Z,99903.88
2022-10-26T16:10:41.269Z,99913.25
2022-10-26T16:15:44.501Z,99905.47
2022-10-26T16:20:47.431Z,99905.41
2022-10-26T16:25:50.110Z,99882.72
2022-10-26T16:31:02.033Z,99913.66
2022-10-26T16:36:05.618Z,99905.63
2022-10-26T16:41:13.690Z,99905.63
2022-10-26T16:46:19.705Z,99910.81
2022-10-26T16:51:24.824Z,99906.59
2022-10-26T16:56:29.969Z,99903.09
2022-10-26T17:01:32.744Z,99909.72
2022-10-26T17:06:35.454Z,99869.97
2022-10-26T17:11:38.153Z,99901.94
2022-10-26T17:16:41.010Z,99852.78
2022-10-26T17:21:44.516Z,99900.22
2022-10-26T17:26:47.207Z,99897.78
2022-10-26T17:31:49.721Z,99890.19
2022-10-26T17:36:52.367Z,99894.38
2022-10-26T17:41:54.976Z,99867.69
2022-10-26T17:46:57.676Z,99888.50
2022-10-26T17:52:00.361Z,99888.50
2022-10-26T17:57:03.412Z,99885.88
2022-10-26T18:02:06.071Z,99893.66
2022-10-26T18:07:08.863Z,99889.44
2022-10-26T18:12:11.626Z,99888.19
2022-10-26T18:17:14.226Z,99885.41
2022-10-26T18:22:16.800Z,99895.78
2022-10-26T18:27:20.387Z,99888.16
2022-10-26T18:32:22.969Z,99896.63
2022-10-26T18:37:26.580Z,99890.63
2022-10-26T18:42:29.247Z,99885.41
2022-10-26T18:47:32.825Z,99894.13
2022-10-26T18:52:35.430Z,99904.22
2022-10-26T18:57:38.052Z,99877.94
2022-10-26T19:02:40.644Z,99905.28
2022-10-26T19:07:43.320Z,99908.16
2022-10-26T19:12:46.034Z,99897.94
2022-10-26T19:17:48.597Z,99904.69
2022-10-26T19:22:53.600Z,99896.88
2022-10-26T19:27:56.289Z,99893.47
2022-10-26T19:33:00.247Z,99892.53
2022-10-26T19:38:02.976Z,99879.75
2022-10-26T19:43:05.549Z,99890.66
2022-10-26T19:48:08.172Z,99901.88
2022-10-26T19:53:10.791Z,99894.22
2022-10-26T19:58:14.034Z,99897.59
2022-10-26T20:03:16.732Z,99898.28
2022-10-26T20:08:19.827Z,99889.88
2022-10-26T20:13:23.210Z,99890.59
2022-10-26T20:18:25.943Z,99885.47
2022-10-26T20:23:28.584Z,99875.88
2022-10-26T20:28:31.355Z,99861.06
2022-10-26T20:33:33.933Z,99880.41
2022-10-26T20:38:40.065Z,99865.88
2022-10-26T20:43:43.123Z,99874.63
2022-10-26T20:48:46.041Z,99878.88
2022-10-26T20:54:04.684Z,99864.84
2022-10-26T20:59:17.671Z,99873.56
2022-10-26T21:04:20.369Z,99873.69
2022-10-26T21:09:23.597Z,99846.31
2022-10-26T21:14:29.084Z,99859.41
2022-10-26T21:19:31.665Z,99862.94
2022-10-26T21:29:42.112Z,99845.94
2022-10-26T21:34:45.597Z,99862.59
2022-10-26T21:39:48.498Z,99862.56
2022-10-26T21:44:51.143Z,99865.91
2022-10-26T21:49:53.725Z,99863.22
2022-10-26T21:54:56.334Z,99857.22
2022-10-26T21:59:58.876Z,99864.13
2022-10-26T22:05:01.477Z,99860.72
2022-10-26T22:10:13.147Z,99839.00
2022-10-26T22:15:17.061Z,99831.50
2022-10-26T22:20:19.600Z,99853.97
2022-10-26T22:25:22.385Z,99849.91
2022-10-26T22:30:25.080Z,99839.59
2022-10-26T22:35:29.733Z,99846.59
2022-10-26T22:40:32.739Z,99849.09
2022-10-26T22:45:35.277Z,99841.91
2022-10-26T22:50:38.619Z,99849.34
2022-10-26T22:55:42.359Z,99818.41
2022-10-26T23:00:44.963Z,99846.81
2022-10-26T23:05:48.704Z,99835.44
2022-10-26T23:10:51.422Z,99828.47
2022-10-26T23:15:54.033Z,99832.91
2022-10-26T23:20:57.180Z,99837.75
2022-10-26T23:26:07.687Z,99832.69
2022-10-26T23:31:19.475Z,99832.94
2022-10-26T23:36:22.508Z,99831.13
2022-10-26T23:41:25.035Z,99824.53
2022-10-26T23:51:35.164Z,99828.72
2022-10-26T23:56:37.805Z,99831.31
